sensor_id;sensor_type;location;lat;lon;timestamp;P1;durP1;ratioP1;P2;durP2;ratioP2
59388;SDS011;51830;45.202;19.720;2023-05-10T00:02:06;11.18;;;2.80;;
59388;SDS011;51830;45.202;19.720;2023-05-10T00:04:33;7.97;;;2.38;;
59388;SDS011;51830;45.202;19.720;2023-05-10T00:06:59;9.98;;;2.65;;
59388;SDS011;51830;45.202;19.720;2023-05-10T00:09:25;10.10;;;3.15;;
59388;SDS011;51830;45.202;19.720;2023-05-10T00:11:51;10.10;;;2.88;;
59388;SDS011;51830;45.202;19.720;2023-05-10T00:14:17;10.18;;;2.83;;
59388;SDS011;51830;45.202;19.720;2023-05-10T00:16:43;7.65;;;2.28;;
59388;SDS011;51830;45.202;19.720;2023-05-10T00:19:10;10.90;;;3.10;;
59388;SDS011;51830;45.202;19.720;2023-05-10T00:21:36;14.30;;;4.10;;
59388;SDS011;51830;45.202;19.720;2023-05-10T00:24:02;10.90;;;3.10;;
59388;SDS011;51830;45.202;19.720;2023-05-10T00:26:29;12.07;;;3.25;;
59388;SDS011;51830;45.202;19.720;2023-05-10T00:28:55;12.90;;;3.47;;
59388;SDS011;51830;45.202;19.720;2023-05-10T00:31:23;12.68;;;2.97;;
59388;SDS011;51830;45.202;19.720;2023-05-10T00:33:49;9.63;;;2.92;;
59388;SDS011;51830;45.202;19.720;2023-05-10T00:36:16;12.80;;;3.20;;
59388;SDS011;51830;45.202;19.720;2023-05-10T00:38:42;10.68;;;2.83;;
59388;SDS011;51830;45.202;19.720;2023-05-10T00:41:11;9.00;;;2.85;;
59388;SDS011;51830;45.202;19.720;2023-05-10T00:43:40;12.13;;;3.08;;
59388;SDS011;51830;45.202;19.720;2023-05-10T00:46:06;10.77;;;2.95;;
59388;SDS011;51830;45.202;19.720;2023-05-10T00:48:33;11.38;;;3.30;;
59388;SDS011;51830;45.202;19.720;2023-05-10T00:51:00;10.20;;;2.88;;
59388;SDS011;51830;45.202;19.720;2023-05-10T00:53:27;9.52;;;2.70;;
59388;SDS011;51830;45.202;19.720;2023-05-10T00:55:53;8.32;;;2.58;;
59388;SDS011;51830;45.202;19.720;2023-05-10T00:58:19;12.35;;;3.20;;
59388;SDS011;51830;45.202;19.720;2023-05-10T01:00:48;10.35;;;2.85;;
59388;SDS011;51830;45.202;19.720;2023-05-10T01:03:15;14.27;;;3.40;;
59388;SDS011;51830;45.202;19.720;2023-05-10T01:05:42;11.00;;;3.33;;
59388;SDS011;51830;45.202;19.720;2023-05-10T01:08:10;10.82;;;3.20;;
59388;SDS011;51830;45.202;19.720;2023-05-10T01:10:40;11.63;;;3.03;;
59388;SDS011;51830;45.202;19.720;2023-05-10T01:13:06;11.15;;;2.85;;
59388;SDS011;51830;45.202;19.720;2023-05-10T01:15:32;14.05;;;3.55;;
59388;SDS011;51830;45.202;19.720;2023-05-10T01:17:59;10.45;;;3.05;;
59388;SDS011;51830;45.202;19.720;2023-05-10T01:20:26;11.10;;;3.10;;
59388;SDS011;51830;45.202;19.720;2023-05-10T01:25:55;10.73;;;2.83;;
59388;SDS011;51830;45.202;19.720;2023-05-10T01:31:18;10.55;;;2.78;;
59388;SDS011;51830;45.202;19.720;2023-05-10T01:33:55;8.88;;;2.65;;
59388;SDS011;51830;45.202;19.720;2023-05-10T01:47:34;9.55;;;2.72;;
59388;SDS011;51830;45.202;19.720;2023-05-10T01:50:02;8.82;;;2.55;;
59388;SDS011;51830;45.202;19.720;2023-05-10T01:52:38;7.80;;;2.53;;
59388;SDS011;51830;45.202;19.720;2023-05-10T01:55:07;13.02;;;2.95;;
59388;SDS011;51830;45.202;19.720;2023-05-10T01:57:35;7.03;;;2.30;;
59388;SDS011;51830;45.202;19.720;2023-05-10T02:00:04;7.68;;;2.17;;
59388;SDS011;51830;45.202;19.720;2023-05-10T02:02:33;9.85;;;2.90;;
59388;SDS011;51830;45.202;19.720;2023-05-10T02:05:02;8.98;;;2.60;;
59388;SDS011;51830;45.202;19.720;2023-05-10T02:07:30;10.02;;;2.60;;
59388;SDS011;51830;45.202;19.720;2023-05-10T02:10:01;9.50;;;2.85;;
59388;SDS011;51830;45.202;19.720;2023-05-10T02:12:28;9.00;;;2.50;;
59388;SDS011;51830;45.202;19.720;2023-05-10T02:14:56;8.63;;;2.55;;
59388;SDS011;51830;45.202;19.720;2023-05-10T02:17:23;9.60;;;2.47;;
59388;SDS011;51830;45.202;19.720;2023-05-10T02:19:51;11.15;;;2.80;;
59388;SDS011;51830;45.202;19.720;2023-05-10T02:22:18;10.48;;;2.80;;
59388;SDS011;51830;45.202;19.720;2023-05-10T02:24:45;9.77;;;2.58;;
59388;SDS011;51830;45.202;19.720;2023-05-10T02:27:11;9.48;;;2.40;;
59388;SDS011;51830;45.202;19.720;2023-05-10T02:29:38;9.40;;;2.50;;
59388;SDS011;51830;45.202;19.720;2023-05-10T02:32:04;12.13;;;2.97;;
59388;SDS011;51830;45.202;19.720;2023-05-10T02:34:31;10.63;;;3.03;;
59388;SDS011;51830;45.202;19.720;2023-05-10T02:36:58;10.27;;;2.80;;
59388;SDS011;51830;45.202;19.720;2023-05-10T02:39:28;9.75;;;2.80;;
59388;SDS011;51830;45.202;19.720;2023-05-10T02:41:55;11.27;;;2.88;;
59388;SDS011;51830;45.202;19.720;2023-05-10T02:44:22;7.07;;;2.47;;
59388;SDS011;51830;45.202;19.720;2023-05-10T02:46:49;9.07;;;2.53;;
59388;SDS011;51830;45.202;19.720;2023-05-10T02:49:15;12.57;;;3.20;;
59388;SDS011;51830;45.202;19.720;2023-05-10T02:51:43;12.85;;;3.60;;
59388;SDS011;51830;45.202;19.720;2023-05-10T02:54:11;8.25;;;2.70;;
59388;SDS011;51830;45.202;19.720;2023-05-10T02:56:40;9.65;;;3.05;;
59388;SDS011;51830;45.202;19.720;2023-05-10T02:59:08;13.07;;;3.25;;
59388;SDS011;51830;45.202;19.720;2023-05-10T03:01:34;11.45;;;3.10;;
59388;SDS011;51830;45.202;19.720;2023-05-10T03:04:00;12.48;;;3.20;;
59388;SDS011;51830;45.202;19.720;2023-05-10T03:06:26;10.88;;;3.03;;
59388;SDS011;51830;45.202;19.720;2023-05-10T03:08:53;11.10;;;3.08;;
59388;SDS011;51830;45.202;19.720;2023-05-10T03:14:07;8.98;;;3.00;;
59388;SDS011;51830;45.202;19.720;2023-05-10T03:16:35;11.23;;;3.08;;
59388;SDS011;51830;45.202;19.720;2023-05-10T03:19:06;12.25;;;3.60;;
59388;SDS011;51830;45.202;19.720;2023-05-10T03:21:33;9.35;;;2.90;;
59388;SDS011;51830;45.202;19.720;2023-05-10T03:24:05;12.73;;;3.17;;
59388;SDS011;51830;45.202;19.720;2023-05-10T03:26:33;10.13;;;3.05;;
59388;SDS011;51830;45.202;19.720;2023-05-10T03:28:59;12.00;;;2.85;;
59388;SDS011;51830;45.202;19.720;2023-05-10T03:31:32;10.05;;;2.88;;
59388;SDS011;51830;45.202;19.720;2023-05-10T03:33:58;10.60;;;3.10;;
59388;SDS011;51830;45.202;19.720;2023-05-10T03:36:24;12.05;;;3.78;;
59388;SDS011;51830;45.202;19.720;2023-05-10T03:38:51;12.00;;;4.00;;
59388;SDS011;51830;45.202;19.720;2023-05-10T03:41:20;12.70;;;3.60;;
59388;SDS011;51830;45.202;19.720;2023-05-10T03:43:46;9.07;;;2.60;;
59388;SDS011;51830;45.202;19.720;2023-05-10T03:46:12;12.25;;;3.53;;
59388;SDS011;51830;45.202;19.720;2023-05-10T03:48:39;9.82;;;3.17;;
59388;SDS011;51830;45.202;19.720;2023-05-10T03:51:05;8.10;;;2.42;;
59388;SDS011;51830;45.202;19.720;2023-05-10T03:53:34;14.15;;;3.67;;
59388;SDS011;51830;45.202;19.720;2023-05-10T03:56:14;11.18;;;3.38;;
59388;SDS011;51830;45.202;19.720;2023-05-10T03:58:41;17.40;;;4.03;;
59388;SDS011;51830;45.202;19.720;2023-05-10T04:01:07;11.30;;;3.22;;
59388;SDS011;51830;45.202;19.720;2023-05-10T04:03:33;7.68;;;2.35;;
59388;SDS011;51830;45.202;19.720;2023-05-10T04:06:01;12.63;;;3.88;;
59388;SDS011;51830;45.202;19.720;2023-05-10T04:08:28;11.35;;;3.20;;
59388;SDS011;51830;45.202;19.720;2023-05-10T04:10:54;11.20;;;3.22;;
59388;SDS011;51830;45.202;19.720;2023-05-10T04:13:20;13.57;;;3.20;;
59388;SDS011;51830;45.202;19.720;2023-05-10T04:15:47;9.93;;;2.72;;
59388;SDS011;51830;45.202;19.720;2023-05-10T04:18:13;9.38;;;2.63;;
59388;SDS011;51830;45.202;19.720;2023-05-10T04:20:40;9.35;;;2.50;;
59388;SDS011;51830;45.202;19.720;2023-05-10T04:23:06;12.48;;;3.45;;
59388;SDS011;51830;45.202;19.720;2023-05-10T04:25:33;10.20;;;2.80;;
59388;SDS011;51830;45.202;19.720;2023-05-10T04:28:00;12.75;;;3.10;;
59388;SDS011;51830;45.202;19.720;2023-05-10T04:30:26;10.15;;;2.90;;
59388;SDS011;51830;45.202;19.720;2023-05-10T04:32:54;10.20;;;2.83;;
59388;SDS011;51830;45.202;19.720;2023-05-10T04:35:20;10.95;;;2.88;;
59388;SDS011;51830;45.202;19.720;2023-05-10T04:37:46;9.75;;;2.70;;
59388;SDS011;51830;45.202;19.720;2023-05-10T04:40:12;11.07;;;2.90;;
59388;SDS011;51830;45.202;19.720;2023-05-10T04:42:40;12.35;;;3.17;;
59388;SDS011;51830;45.202;19.720;2023-05-10T04:45:06;12.23;;;3.30;;
59388;SDS011;51830;45.202;19.720;2023-05-10T04:47:34;10.73;;;2.83;;
59388;SDS011;51830;45.202;19.720;2023-05-10T04:50:02;11.55;;;3.03;;
59388;SDS011;51830;45.202;19.720;2023-05-10T04:52:31;11.20;;;3.33;;
59388;SDS011;51830;45.202;19.720;2023-05-10T04:54:57;10.88;;;3.03;;
59388;SDS011;51830;45.202;19.720;2023-05-10T04:57:33;10.38;;;3.10;;
59388;SDS011;51830;45.202;19.720;2023-05-10T04:59:59;12.02;;;3.38;;
59388;SDS011;51830;45.202;19.720;2023-05-10T05:08:24;11.73;;;3.17;;
59388;SDS011;51830;45.202;19.720;2023-05-10T05:10:51;11.85;;;3.10;;
59388;SDS011;51830;45.202;19.720;2023-05-10T05:13:17;11.27;;;3.45;;
59388;SDS011;51830;45.202;19.720;2023-05-10T05:15:43;11.13;;;3.15;;
59388;SDS011;51830;45.202;19.720;2023-05-10T05:18:10;14.60;;;3.58;;
59388;SDS011;51830;45.202;19.720;2023-05-10T05:20:36;12.25;;;3.38;;
59388;SDS011;51830;45.202;19.720;2023-05-10T05:23:02;13.27;;;3.67;;
59388;SDS011;51830;45.202;19.720;2023-05-10T05:25:28;10.82;;;3.15;;
59388;SDS011;51830;45.202;19.720;2023-05-10T05:28:01;16.60;;;3.33;;
59388;SDS011;51830;45.202;19.720;2023-05-10T05:30:30;10.43;;;3.00;;
59388;SDS011;51830;45.202;19.720;2023-05-10T05:32:56;16.48;;;3.85;;
59388;SDS011;51830;45.202;19.720;2023-05-10T05:35:22;16.13;;;3.75;;
59388;SDS011;51830;45.202;19.720;2023-05-10T05:37:48;16.65;;;3.65;;
59388;SDS011;51830;45.202;19.720;2023-05-10T05:40:15;12.50;;;3.78;;
59388;SDS011;51830;45.202;19.720;2023-05-10T05:42:41;13.55;;;3.90;;
59388;SDS011;51830;45.202;19.720;2023-05-10T05:45:10;13.05;;;3.40;;
59388;SDS011;51830;45.202;19.720;2023-05-10T05:47:38;12.65;;;3.65;;
59388;SDS011;51830;45.202;19.720;2023-05-10T05:50:05;12.60;;;3.67;;
59388;SDS011;51830;45.202;19.720;2023-05-10T05:52:34;12.68;;;3.67;;
59388;SDS011;51830;45.202;19.720;2023-05-10T05:55:01;16.35;;;3.85;;
59388;SDS011;51830;45.202;19.720;2023-05-10T05:57:27;12.02;;;3.58;;
59388;SDS011;51830;45.202;19.720;2023-05-10T05:59:53;12.07;;;3.95;;
59388;SDS011;51830;45.202;19.720;2023-05-10T06:02:20;13.55;;;4.13;;
59388;SDS011;51830;45.202;19.720;2023-05-10T06:04:52;15.82;;;4.63;;
59388;SDS011;51830;45.202;19.720;2023-05-10T06:07:18;11.35;;;3.35;;
59388;SDS011;51830;45.202;19.720;2023-05-10T06:09:48;8.02;;;2.67;;
59388;SDS011;51830;45.202;19.720;2023-05-10T06:12:14;12.38;;;3.33;;
59388;SDS011;51830;45.202;19.720;2023-05-10T06:14:46;10.50;;;3.40;;
59388;SDS011;51830;45.202;19.720;2023-05-10T06:17:12;12.07;;;3.17;;
59388;SDS011;51830;45.202;19.720;2023-05-10T06:19:38;12.63;;;3.80;;
59388;SDS011;51830;45.202;19.720;2023-05-10T06:22:07;12.60;;;3.33;;
59388;SDS011;51830;45.202;19.720;2023-05-10T06:24:33;12.35;;;3.45;;
59388;SDS011;51830;45.202;19.720;2023-05-10T06:27:05;18.45;;;3.25;;
59388;SDS011;51830;45.202;19.720;2023-05-10T06:29:32;11.88;;;3.60;;
59388;SDS011;51830;45.202;19.720;2023-05-10T06:31:58;9.15;;;2.80;;
59388;SDS011;51830;45.202;19.720;2023-05-10T06:34:24;12.80;;;3.42;;
59388;SDS011;51830;45.202;19.720;2023-05-10T06:36:50;19.10;;;3.95;;
59388;SDS011;51830;45.202;19.720;2023-05-10T06:39:17;15.02;;;3.97;;
59388;SDS011;51830;45.202;19.720;2023-05-10T06:41:43;13.10;;;3.90;;
59388;SDS011;51830;45.202;19.720;2023-05-10T06:44:09;11.95;;;3.83;;
59388;SDS011;51830;45.202;19.720;2023-05-10T06:46:35;12.73;;;3.08;;
59388;SDS011;51830;45.202;19.720;2023-05-10T06:49:01;11.52;;;3.42;;
59388;SDS011;51830;45.202;19.720;2023-05-10T06:51:28;11.75;;;3.40;;
59388;SDS011;51830;45.202;19.720;2023-05-10T06:53:54;12.02;;;3.28;;
59388;SDS011;51830;45.202;19.720;2023-05-10T06:56:20;13.30;;;3.75;;
59388;SDS011;51830;45.202;19.720;2023-05-10T06:58:47;14.63;;;3.30;;
59388;SDS011;51830;45.202;19.720;2023-05-10T07:01:13;12.15;;;3.22;;
59388;SDS011;51830;45.202;19.720;2023-05-10T07:03:40;11.63;;;3.05;;
59388;SDS011;51830;45.202;19.720;2023-05-10T07:06:07;11.63;;;3.03;;
59388;SDS011;51830;45.202;19.720;2023-05-10T07:08:34;10.65;;;3.00;;
59388;SDS011;51830;45.202;19.720;2023-05-10T07:11:05;11.32;;;3.10;;
59388;SDS011;51830;45.202;19.720;2023-05-10T07:13:32;12.07;;;3.33;;
59388;SDS011;51830;45.202;19.720;2023-05-10T07:16:00;11.70;;;2.90;;
59388;SDS011;51830;45.202;19.720;2023-05-10T07:18:27;11.18;;;3.15;;
59388;SDS011;51830;45.202;19.720;2023-05-10T07:20:53;13.68;;;3.22;;
59388;SDS011;51830;45.202;19.720;2023-05-10T07:23:22;11.80;;;3.08;;
59388;SDS011;51830;45.202;19.720;2023-05-10T07:25:50;12.15;;;3.08;;
59388;SDS011;51830;45.202;19.720;2023-05-10T07:28:17;12.63;;;3.90;;
59388;SDS011;51830;45.202;19.720;2023-05-10T07:30:43;10.30;;;3.13;;
59388;SDS011;51830;45.202;19.720;2023-05-10T07:33:10;12.77;;;3.10;;
59388;SDS011;51830;45.202;19.720;2023-05-10T07:35:36;10.43;;;3.08;;
59388;SDS011;51830;45.202;19.720;2023-05-10T07:38:03;10.85;;;2.90;;
59388;SDS011;51830;45.202;19.720;2023-05-10T07:40:29;10.82;;;2.97;;
59388;SDS011;51830;45.202;19.720;2023-05-10T07:42:55;12.27;;;2.95;;
59388;SDS011;51830;45.202;19.720;2023-05-10T07:45:22;10.20;;;2.85;;
59388;SDS011;51830;45.202;19.720;2023-05-10T07:47:49;9.77;;;2.88;;
59388;SDS011;51830;45.202;19.720;2023-05-10T07:50:15;10.43;;;2.97;;
59388;SDS011;51830;45.202;19.720;2023-05-10T07:52:41;12.82;;;3.78;;
59388;SDS011;51830;45.202;19.720;2023-05-10T07:55:07;11.77;;;3.05;;
59388;SDS011;51830;45.202;19.720;2023-05-10T07:57:34;11.63;;;3.10;;
59388;SDS011;51830;45.202;19.720;2023-05-10T08:00:00;7.70;;;2.42;;
59388;SDS011;51830;45.202;19.720;2023-05-10T08:02:26;11.05;;;2.85;;
59388;SDS011;51830;45.202;19.720;2023-05-10T08:04:53;9.30;;;2.83;;
59388;SDS011;51830;45.202;19.720;2023-05-10T08:07:19;9.82;;;2.90;;
59388;SDS011;51830;45.202;19.720;2023-05-10T08:09:45;11.07;;;2.90;;
59388;SDS011;51830;45.202;19.720;2023-05-10T08:12:11;12.43;;;3.22;;
59388;SDS011;51830;45.202;19.720;2023-05-10T08:14:37;11.15;;;3.00;;
59388;SDS011;51830;45.202;19.720;2023-05-10T08:17:04;13.38;;;3.40;;
59388;SDS011;51830;45.202;19.720;2023-05-10T08:19:30;11.35;;;3.13;;
59388;SDS011;51830;45.202;19.720;2023-05-10T08:21:57;9.80;;;2.70;;
59388;SDS011;51830;45.202;19.720;2023-05-10T08:24:23;11.98;;;3.20;;
59388;SDS011;51830;45.202;19.720;2023-05-10T08:26:49;11.88;;;3.03;;
59388;SDS011;51830;45.202;19.720;2023-05-10T08:29:15;11.38;;;3.00;;
59388;SDS011;51830;45.202;19.720;2023-05-10T08:31:42;10.48;;;3.00;;
59388;SDS011;51830;45.202;19.720;2023-05-10T08:34:08;10.40;;;2.80;;
59388;SDS011;51830;45.202;19.720;2023-05-10T08:36:34;10.32;;;2.88;;
59388;SDS011;51830;45.202;19.720;2023-05-10T08:39:01;11.02;;;2.88;;
59388;SDS011;51830;45.202;19.720;2023-05-10T08:41:27;11.20;;;3.08;;
59388;SDS011;51830;45.202;19.720;2023-05-10T08:43:53;12.68;;;3.15;;
59388;SDS011;51830;45.202;19.720;2023-05-10T08:46:20;10.73;;;2.78;;
59388;SDS011;51830;45.202;19.720;2023-05-10T08:48:47;11.00;;;2.70;;
59388;SDS011;51830;45.202;19.720;2023-05-10T08:51:14;14.48;;;3.70;;
59388;SDS011;51830;45.202;19.720;2023-05-10T08:53:41;12.32;;;3.38;;
59388;SDS011;51830;45.202;19.720;2023-05-10T08:56:07;14.30;;;3.78;;
59388;SDS011;51830;45.202;19.720;2023-05-10T08:58:34;12.65;;;3.17;;
59388;SDS011;51830;45.202;19.720;2023-05-10T09:01:00;13.25;;;3.20;;
59388;SDS011;51830;45.202;19.720;2023-05-10T09:03:26;13.48;;;3.25;;
59388;SDS011;51830;45.202;19.720;2023-05-10T09:05:52;11.77;;;2.80;;
59388;SDS011;51830;45.202;19.720;2023-05-10T09:08:21;13.70;;;3.38;;
59388;SDS011;51830;45.202;19.720;2023-05-10T09:10:50;13.45;;;3.47;;
59388;SDS011;51830;45.202;19.720;2023-05-10T09:13:17;16.45;;;3.47;;
59388;SDS011;51830;45.202;19.720;2023-05-10T09:15:44;10.85;;;2.97;;
59388;SDS011;51830;45.202;19.720;2023-05-10T09:18:11;11.23;;;3.08;;
59388;SDS011;51830;45.202;19.720;2023-05-10T09:20:37;10.27;;;2.78;;
59388;SDS011;51830;45.202;19.720;2023-05-10T09:23:03;13.00;;;3.45;;
59388;SDS011;51830;45.202;19.720;2023-05-10T09:25:30;13.18;;;3.22;;
59388;SDS011;51830;45.202;19.720;2023-05-10T09:27:58;11.45;;;3.45;;
59388;SDS011;51830;45.202;19.720;2023-05-10T09:32:50;11.95;;;3.00;;
59388;SDS011;51830;45.202;19.720;2023-05-10T09:35:17;11.48;;;2.90;;
59388;SDS011;51830;45.202;19.720;2023-05-10T09:37:48;12.45;;;3.08;;
59388;SDS011;51830;45.202;19.720;2023-05-10T09:40:15;13.07;;;3.10;;
59388;SDS011;51830;45.202;19.720;2023-05-10T09:42:54;12.88;;;3.17;;
59388;SDS011;51830;45.202;19.720;2023-05-10T09:45:21;14.18;;;3.00;;
59388;SDS011;51830;45.202;19.720;2023-05-10T09:47:47;13.07;;;2.72;;
59388;SDS011;51830;45.202;19.720;2023-05-10T09:50:13;10.77;;;3.05;;
59388;SDS011;51830;45.202;19.720;2023-05-10T09:55:12;12.55;;;2.97;;
59388;SDS011;51830;45.202;19.720;2023-05-10T09:57:38;11.60;;;3.15;;
59388;SDS011;51830;45.202;19.720;2023-05-10T10:00:05;13.43;;;3.15;;
59388;SDS011;51830;45.202;19.720;2023-05-10T10:02:31;10.70;;;3.00;;
59388;SDS011;51830;45.202;19.720;2023-05-10T10:04:58;10.90;;;2.83;;
59388;SDS011;51830;45.202;19.720;2023-05-10T10:07:27;11.60;;;3.17;;
59388;SDS011;51830;45.202;19.720;2023-05-10T10:09:54;11.25;;;3.10;;
59388;SDS011;51830;45.202;19.720;2023-05-10T10:12:20;11.48;;;2.90;;
59388;SDS011;51830;45.202;19.720;2023-05-10T10:14:47;9.73;;;2.65;;
59388;SDS011;51830;45.202;19.720;2023-05-10T10:17:15;9.18;;;2.65;;
59388;SDS011;51830;45.202;19.720;2023-05-10T10:19:41;10.20;;;2.70;;
59388;SDS011;51830;45.202;19.720;2023-05-10T10:22:07;8.68;;;2.55;;
59388;SDS011;51830;45.202;19.720;2023-05-10T10:24:36;12.07;;;3.00;;
59388;SDS011;51830;45.202;19.720;2023-05-10T10:30:07;11.43;;;2.70;;
59388;SDS011;51830;45.202;19.720;2023-05-10T10:35:15;11.18;;;2.83;;
59388;SDS011;51830;45.202;19.720;2023-05-10T10:37:45;6.75;;;2.33;;
59388;SDS011;51830;45.202;19.720;2023-05-10T10:40:27;7.30;;;2.47;;
59388;SDS011;51830;45.202;19.720;2023-05-10T10:42:54;12.73;;;2.60;;
59388;SDS011;51830;45.202;19.720;2023-05-10T10:45:20;12.15;;;2.70;;
59388;SDS011;51830;45.202;19.720;2023-05-10T10:47:47;10.55;;;3.03;;
59388;SDS011;51830;45.202;19.720;2023-05-10T10:50:13;9.10;;;2.50;;
59388;SDS011;51830;45.202;19.720;2023-05-10T10:52:41;10.57;;;2.85;;
59388;SDS011;51830;45.202;19.720;2023-05-10T11:00:19;10.50;;;2.60;;
59388;SDS011;51830;45.202;19.720;2023-05-10T11:02:46;11.80;;;2.92;;
59388;SDS011;51830;45.202;19.720;2023-05-10T11:05:23;13.57;;;3.28;;
59388;SDS011;51830;45.202;19.720;2023-05-10T11:07:53;13.38;;;3.40;;
59388;SDS011;51830;45.202;19.720;2023-05-10T11:10:23;16.55;;;3.25;;
59388;SDS011;51830;45.202;19.720;2023-05-10T11:17:47;9.98;;;2.38;;
59388;SDS011;51830;45.202;19.720;2023-05-10T11:20:17;11.20;;;2.80;;
59388;SDS011;51830;45.202;19.720;2023-05-10T11:22:51;6.60;;;2.30;;
59388;SDS011;51830;45.202;19.720;2023-05-10T11:25:17;10.00;;;2.42;;
59388;SDS011;51830;45.202;19.720;2023-05-10T11:27:44;10.93;;;2.72;;
59388;SDS011;51830;45.202;19.720;2023-05-10T11:30:10;8.23;;;2.50;;
59388;SDS011;51830;45.202;19.720;2023-05-10T11:32:40;6.50;;;2.22;;
59388;SDS011;51830;45.202;19.720;2023-05-10T11:35:09;11.32;;;2.40;;
59388;SDS011;51830;45.202;19.720;2023-05-10T11:37:36;13.02;;;2.80;;
59388;SDS011;51830;45.202;19.720;2023-05-10T11:40:07;9.90;;;2.50;;
59388;SDS011;51830;45.202;19.720;2023-05-10T11:42:36;9.55;;;2.50;;
59388;SDS011;51830;45.202;19.720;2023-05-10T11:45:03;6.72;;;2.40;;
59388;SDS011;51830;45.202;19.720;2023-05-10T11:47:29;8.07;;;2.47;;
59388;SDS011;51830;45.202;19.720;2023-05-10T11:49:55;8.30;;;2.40;;
59388;SDS011;51830;45.202;19.720;2023-05-10T11:52:21;7.07;;;2.13;;
59388;SDS011;51830;45.202;19.720;2023-05-10T11:54:51;7.05;;;2.42;;
59388;SDS011;51830;45.202;19.720;2023-05-10T11:57:20;10.27;;;2.42;;
59388;SDS011;51830;45.202;19.720;2023-05-10T11:59:46;7.70;;;2.38;;
59388;SDS011;51830;45.202;19.720;2023-05-10T12:02:13;9.13;;;2.50;;
59388;SDS011;51830;45.202;19.720;2023-05-10T12:04:40;8.35;;;2.28;;
59388;SDS011;51830;45.202;19.720;2023-05-10T12:07:06;7.65;;;2.15;;
59388;SDS011;51830;45.202;19.720;2023-05-10T12:09:32;6.82;;;2.10;;
59388;SDS011;51830;45.202;19.720;2023-05-10T12:11:58;6.95;;;2.30;;
59388;SDS011;51830;45.202;19.720;2023-05-10T12:14:26;12.23;;;2.92;;
59388;SDS011;51830;45.202;19.720;2023-05-10T12:16:53;13.45;;;3.13;;
59388;SDS011;51830;45.202;19.720;2023-05-10T12:19:19;11.38;;;3.13;;
59388;SDS011;51830;45.202;19.720;2023-05-10T12:21:46;9.05;;;2.53;;
59388;SDS011;51830;45.202;19.720;2023-05-10T12:24:12;5.78;;;2.13;;
59388;SDS011;51830;45.202;19.720;2023-05-10T12:26:41;12.75;;;3.03;;
59388;SDS011;51830;45.202;19.720;2023-05-10T12:29:17;7.60;;;2.30;;
59388;SDS011;51830;45.202;19.720;2023-05-10T12:31:57;6.93;;;2.40;;
59388;SDS011;51830;45.202;19.720;2023-05-10T12:34:24;9.98;;;2.50;;
59388;SDS011;51830;45.202;19.720;2023-05-10T12:36:53;9.52;;;2.45;;
59388;SDS011;51830;45.202;19.720;2023-05-10T12:39:19;8.77;;;2.45;;
59388;SDS011;51830;45.202;19.720;2023-05-10T12:41:46;6.43;;;2.20;;
59388;SDS011;51830;45.202;19.720;2023-05-10T12:44:12;6.05;;;2.10;;
59388;SDS011;51830;45.202;19.720;2023-05-10T12:46:38;7.90;;;2.20;;
59388;SDS011;51830;45.202;19.720;2023-05-10T12:49:04;8.85;;;2.58;;
59388;SDS011;51830;45.202;19.720;2023-05-10T12:51:30;11.57;;;2.80;;
59388;SDS011;51830;45.202;19.720;2023-05-10T12:53:56;13.77;;;2.80;;
59388;SDS011;51830;45.202;19.720;2023-05-10T12:56:22;7.85;;;2.53;;
59388;SDS011;51830;45.202;19.720;2023-05-10T12:58:49;9.25;;;2.50;;
59388;SDS011;51830;45.202;19.720;2023-05-10T13:01:15;12.95;;;3.30;;
59388;SDS011;51830;45.202;19.720;2023-05-10T13:03:42;11.10;;;3.17;;
59388;SDS011;51830;45.202;19.720;2023-05-10T13:06:08;8.20;;;2.30;;
59388;SDS011;51830;45.202;19.720;2023-05-10T13:08:34;8.90;;;2.75;;
59388;SDS011;51830;45.202;19.720;2023-05-10T13:11:01;8.90;;;2.40;;
59388;SDS011;51830;45.202;19.720;2023-05-10T13:13:27;9.95;;;2.67;;
59388;SDS011;51830;45.202;19.720;2023-05-10T13:15:54;7.72;;;2.38;;
59388;SDS011;51830;45.202;19.720;2023-05-10T13:18:20;6.38;;;2.10;;
59388;SDS011;51830;45.202;19.720;2023-05-10T13:20:46;10.43;;;2.50;;
59388;SDS011;51830;45.202;19.720;2023-05-10T13:23:12;5.97;;;2.17;;
59388;SDS011;51830;45.202;19.720;2023-05-10T13:25:38;7.40;;;2.33;;
59388;SDS011;51830;45.202;19.720;2023-05-10T13:28:04;7.40;;;2.40;;
59388;SDS011;51830;45.202;19.720;2023-05-10T13:30:30;8.35;;;2.22;;
59388;SDS011;51830;45.202;19.720;2023-05-10T13:32:56;15.45;;;2.50;;
59388;SDS011;51830;45.202;19.720;2023-05-10T13:35:23;7.00;;;2.22;;
59388;SDS011;51830;45.202;19.720;2023-05-10T13:37:49;9.18;;;2.53;;
59388;SDS011;51830;45.202;19.720;2023-05-10T13:40:15;10.15;;;2.70;;
59388;SDS011;51830;45.202;19.720;2023-05-10T13:42:41;9.60;;;2.30;;
59388;SDS011;51830;45.202;19.720;2023-05-10T13:45:08;6.95;;;2.10;;
59388;SDS011;51830;45.202;19.720;2023-05-10T13:47:36;7.82;;;2.25;;
59388;SDS011;51830;45.202;19.720;2023-05-10T13:50:03;7.40;;;2.22;;
59388;SDS011;51830;45.202;19.720;2023-05-10T13:52:29;9.57;;;2.45;;
59388;SDS011;51830;45.202;19.720;2023-05-10T13:54:55;7.63;;;2.50;;
59388;SDS011;51830;45.202;19.720;2023-05-10T13:57:22;6.88;;;2.13;;
59388;SDS011;51830;45.202;19.720;2023-05-10T13:59:49;9.73;;;2.17;;
59388;SDS011;51830;45.202;19.720;2023-05-10T14:02:15;6.80;;;2.20;;
59388;SDS011;51830;45.202;19.720;2023-05-10T14:04:41;7.97;;;2.45;;
59388;SDS011;51830;45.202;19.720;2023-05-10T14:07:07;7.40;;;2.40;;
59388;SDS011;51830;45.202;19.720;2023-05-10T14:09:33;7.75;;;2.28;;
59388;SDS011;51830;45.202;19.720;2023-05-10T14:11:59;7.57;;;2.30;;
59388;SDS011;51830;45.202;19.720;2023-05-10T14:14:26;6.53;;;2.25;;
59388;SDS011;51830;45.202;19.720;2023-05-10T14:16:54;7.50;;;2.25;;
59388;SDS011;51830;45.202;19.720;2023-05-10T14:19:20;9.57;;;2.67;;
59388;SDS011;51830;45.202;19.720;2023-05-10T14:21:46;7.35;;;2.20;;
59388;SDS011;51830;45.202;19.720;2023-05-10T14:24:12;6.40;;;2.05;;
59388;SDS011;51830;45.202;19.720;2023-05-10T14:26:38;8.30;;;2.40;;
59388;SDS011;51830;45.202;19.720;2023-05-10T14:29:04;7.43;;;2.40;;
59388;SDS011;51830;45.202;19.720;2023-05-10T14:31:31;9.52;;;2.50;;
59388;SDS011;51830;45.202;19.720;2023-05-10T14:33:57;7.28;;;2.33;;
59388;SDS011;51830;45.202;19.720;2023-05-10T14:36:24;6.38;;;2.25;;
59388;SDS011;51830;45.202;19.720;2023-05-10T14:38:50;8.80;;;2.53;;
59388;SDS011;51830;45.202;19.720;2023-05-10T14:41:17;6.38;;;2.28;;
59388;SDS011;51830;45.202;19.720;2023-05-10T14:43:43;8.93;;;2.50;;
59388;SDS011;51830;45.202;19.720;2023-05-10T14:46:09;5.57;;;2.03;;
59388;SDS011;51830;45.202;19.720;2023-05-10T14:48:35;10.02;;;2.47;;
59388;SDS011;51830;45.202;19.720;2023-05-10T14:51:01;10.02;;;2.40;;
59388;SDS011;51830;45.202;19.720;2023-05-10T14:53:28;7.20;;;1.95;;
59388;SDS011;51830;45.202;19.720;2023-05-10T14:55:55;8.18;;;2.42;;
59388;SDS011;51830;45.202;19.720;2023-05-10T14:58:21;8.55;;;2.28;;
59388;SDS011;51830;45.202;19.720;2023-05-10T15:00:47;8.52;;;2.30;;
59388;SDS011;51830;45.202;19.720;2023-05-10T15:03:13;7.95;;;2.47;;
59388;SDS011;51830;45.202;19.720;2023-05-10T15:05:40;7.30;;;2.25;;
59388;SDS011;51830;45.202;19.720;2023-05-10T15:08:06;6.53;;;2.03;;
59388;SDS011;51830;45.202;19.720;2023-05-10T15:10:34;6.70;;;2.25;;
59388;SDS011;51830;45.202;19.720;2023-05-10T15:13:00;9.00;;;2.50;;